sensor_id;sensor_type;location;lat;lon;timestamp;pressure;altitude;pressure_sealevel;temperature;humidity
61678;BME280;47575;52.054;4.334;2022-12-28T00:00:14;101631.44;;;7.14;100.00
61678;BME280;47575;52.054;4.334;2022-12-28T00:02:42;101632.31;;;7.13;100.00
61678;BME280;47575;52.054;4.334;2022-12-28T00:05:09;101624.50;;;7.19;100.00
61678;BME280;47575;52.054;4.334;2022-12-28T00:07:37;101619.28;;;7.19;100.00
61678;BME280;47575;52.054;4.334;2022-12-28T00:10:04;101602.78;;;7.21;100.00
61678;BME280;47575;52.054;4.334;2022-12-28T00:12:32;101607.97;;;7.26;100.00
61678;BME280;47575;52.054;4.334;2022-12-28T00:14:59;101604.47;;;7.27;100.00
61678;BME280;47575;52.054;4.334;2022-12-28T00:17:26;101609.69;;;7.30;100.00
61678;BME280;47575;52.054;4.334;2022-12-28T00:19:52;101602.72;;;7.32;100.00
61678;BME280;47575;52.054;4.334;2022-12-28T00:22:19;101601.84;;;7.32;100.00
61678;BME280;47575;52.054;4.334;2022-12-28T00:24:48;101582.72;;;7.36;100.00
61678;BME280;47575;52.054;4.334;2022-12-28T00:27:15;101579.22;;;7.37;100.00
61678;BME280;47575;52.054;4.334;2022-12-28T00:29:42;101573.19;;;7.35;100.00
61678;BME280;47575;52.054;4.334;2022-12-28T00:32:09;101578.38;;;7.38;100.00
61678;BME280;47575;52.054;4.334;2022-12-28T00:34:36;101580.09;;;7.37;100.00
61678;BME280;47575;52.054;4.334;2022-12-28T00:37:05;101567.06;;;7.40;100.00
61678;BME280;47575;52.054;4.334;2022-12-28T00:39:34;101551.44;;;7.40;100.00
61678;BME280;47575;52.054;4.334;2022-12-28T00:42:03;101556.63;;;7.42;100.00
61678;BME280;47575;52.054;4.334;2022-12-28T00:44:30;101539.25;;;7.45;100.00
61678;BME280;47575;52.054;4.334;2022-12-28T00:46:57;101539.22;;;7.48;100.00
61678;BME280;47575;52.054;4.334;2022-12-28T00:49:24;101538.31;;;7.51;100.00
61678;BME280;47575;52.054;4.334;2022-12-28T00:51:52;101541.78;;;7.53;100.00
61678;BME280;47575;52.054;4.334;2022-12-28T00:54:19;101547.81;;;7.58;100.00
61678;BME280;47575;52.054;4.334;2022-12-28T00:56:46;101526.97;;;7.61;100.00
61678;BME280;47575;52.054;4.334;2022-12-28T00:59:15;101511.28;;;7.64;100.00
61678;BME280;47575;52.054;4.334;2022-12-28T01:01:42;101528.56;;;7.73;100.00
61678;BME280;47575;52.054;4.334;2022-12-28T01:04:09;101527.69;;;7.74;100.00
61678;BME280;47575;52.054;4.334;2022-12-28T01:06:36;101528.53;;;7.79;100.00
61678;BME280;47575;52.054;4.334;2022-12-28T01:09:04;101505.03;;;7.81;100.00
61678;BME280;47575;52.054;4.334;2022-12-28T01:11:31;101507.66;;;7.82;100.00
61678;BME280;47575;52.054;4.334;2022-12-28T01:13:58;101504.13;;;7.86;100.00
61678;BME280;47575;52.054;4.334;2022-12-28T01:16:29;101523.22;;;7.90;100.00
61678;BME280;47575;52.054;4.334;2022-12-28T01:18:57;101506.69;;;7.91;100.00
61678;BME280;47575;52.054;4.334;2022-12-28T01:21:24;101498.84;;;7.92;100.00
61678;BME280;47575;52.054;4.334;2022-12-28T01:23:53;101540.56;;;7.92;100.00
61678;BME280;47575;52.054;4.334;2022-12-28T01:26:20;101487.59;;;7.90;100.00
61678;BME280;47575;52.054;4.334;2022-12-28T01:28:47;101497.09;;;7.94;100.00
61678;BME280;47575;52.054;4.334;2022-12-28T01:31:15;101495.34;;;7.95;100.00
61678;BME280;47575;52.054;4.334;2022-12-28T01:33:44;101469.28;;;7.93;100.00
61678;BME280;47575;52.054;4.334;2022-12-28T01:36:13;101475.34;;;7.95;100.00
61678;BME280;47575;52.054;4.334;2022-12-28T01:38:40;101490.16;;;7.93;100.00
61678;BME280;47575;52.054;4.334;2022-12-28T01:41:07;101471.03;;;7.93;100.00
61678;BME280;47575;52.054;4.334;2022-12-28T01:43:36;101466.69;;;7.93;100.00
61678;BME280;47575;52.054;4.334;2022-12-28T01:46:05;101459.69;;;7.95;100.00
61678;BME280;47575;52.054;4.334;2022-12-28T01:48:33;101439.72;;;7.96;100.00
61678;BME280;47575;52.054;4.334;2022-12-28T01:51:03;101442.34;;;7.94;100.00
61678;BME280;47575;52.054;4.334;2022-12-28T01:53:30;101468.34;;;8.00;100.00
61678;BME280;47575;52.054;4.334;2022-12-28T01:55:57;101456.16;;;8.02;100.00
61678;BME280;47575;52.054;4.334;2022-12-28T01:58:25;101438.81;;;7.97;100.00
61678;BME280;47575;52.054;4.334;2022-12-28T02:00:54;101450.16;;;7.97;100.00
61678;BME280;47575;52.054;4.334;2022-12-28T02:03:22;101430.06;;;8.02;100.00
61678;BME280;47575;52.054;4.334;2022-12-28T02:05:49;101435.25;;;8.04;100.00
61678;BME280;47575;52.054;4.334;2022-12-28T02:08:21;101418.78;;;8.05;100.00
61678;BME280;47575;52.054;4.334;2022-12-28T02:10:49;101404.81;;;8.08;100.00
61678;BME280;47575;52.054;4.334;2022-12-28T02:13:17;101428.19;;;8.15;100.00
61678;BME280;47575;52.054;4.334;2022-12-28T02:15:45;101402.06;;;8.20;100.00
61678;BME280;47575;52.054;4.334;2022-12-28T02:18:13;101415.97;;;8.20;100.00
61678;BME280;47575;52.054;4.334;2022-12-28T02:20:43;101407.19;;;8.24;100.00
61678;BME280;47575;52.054;4.334;2022-12-28T02:23:16;101422.81;;;8.26;100.00
61678;BME280;47575;52.054;4.334;2022-12-28T02:25:58;101407.13;;;8.30;100.00
61678;BME280;47575;52.054;4.334;2022-12-28T02:31:27;101397.53;;;8.32;100.00
61678;BME280;47575;52.054;4.334;2022-12-28T02:33:57;101390.59;;;8.31;100.00
61678;BME280;47575;52.054;4.334;2022-12-28T02:36:29;101386.25;;;8.35;100.00
61678;BME280;47575;52.054;4.334;2022-12-28T02:39:01;101375.75;;;8.38;100.00
61678;BME280;47575;52.054;4.334;2022-12-28T02:41:29;101374.84;;;8.41;100.00
61678;BME280;47575;52.054;4.334;2022-12-28T02:43:56;101363.53;;;8.40;100.00
61678;BME280;47575;52.054;4.334;2022-12-28T02:46:26;101364.41;;;8.41;100.00
61678;BME280;47575;52.054;4.334;2022-12-28T02:49:16;101354.75;;;8.46;100.00
61678;BME280;47575;52.054;4.334;2022-12-28T02:52:03;101354.69;;;8.49;100.00
61678;BME280;47575;52.054;4.334;2022-12-28T02:57:43;101377.31;;;8.48;100.00
61678;BME280;47575;52.054;4.334;2022-12-28T03:00:17;101376.44;;;8.51;100.00
61678;BME280;47575;52.054;4.334;2022-12-28T03:02:58;101382.50;;;8.53;100.00
61678;BME280;47575;52.054;4.334;2022-12-28T03:05:32;101376.38;;;8.54;100.00
61678;BME280;47575;52.054;4.334;2022-12-28T03:08:24;101378.06;;;8.56;100.00
61678;BME280;47575;52.054;4.334;2022-12-28T03:10:59;101375.50;;;8.55;100.00
61678;BME280;47575;52.054;4.334;2022-12-28T03:13:29;101387.66;;;8.57;100.00
61678;BME280;47575;52.054;4.334;2022-12-28T03:16:13;101375.38;;;8.63;100.00
61678;BME280;47575;52.054;4.334;2022-12-28T03:18:46;101372.72;;;8.66;100.00
61678;BME280;47575;52.054;4.334;2022-12-28T03:21:32;101374.50;;;8.62;100.00
61678;BME280;47575;52.054;4.334;2022-12-28T03:24:19;101371.88;;;8.65;100.00
61678;BME280;47575;52.054;4.334;2022-12-28T03:27:05;101372.72;;;8.66;100.00
61678;BME280;47575;52.054;4.334;2022-12-28T03:29:55;101377.09;;;8.65;100.00
61678;BME280;47575;52.054;4.334;2022-12-28T03:32:43;101362.31;;;8.64;100.00
61678;BME280;47575;52.054;4.334;2022-12-28T03:35:11;101364.06;;;8.62;100.00
61678;BME280;47575;52.054;4.334;2022-12-28T03:37:43;101371.91;;;8.62;100.00
61678;BME280;47575;52.054;4.334;2022-12-28T03:40:16;101351.91;;;8.61;100.00
61678;BME280;47575;52.054;4.334;2022-12-28T03:42:48;101360.53;;;8.66;100.00
61678;BME280;47575;52.054;4.334;2022-12-28T03:45:36;101361.41;;;8.67;100.00
61678;BME280;47575;52.054;4.334;2022-12-28T03:48:04;101357.00;;;8.69;100.00
61678;BME280;47575;52.054;4.334;2022-12-28T03:50:35;101355.28;;;8.68;100.00
61678;BME280;47575;52.054;4.334;2022-12-28T03:53:05;101364.88;;;8.67;100.00
61678;BME280;47575;52.054;4.334;2022-12-28T03:55:32;101353.59;;;8.65;100.00
61678;BME280;47575;52.054;4.334;2022-12-28T03:58:00;101358.72;;;8.70;100.00
61678;BME280;47575;52.054;4.334;2022-12-28T04:00:28;101356.19;;;8.67;100.00
61678;BME280;47575;52.054;4.334;2022-12-28T04:02:55;101355.22;;;8.72;100.00
61678;BME280;47575;52.054;4.334;2022-12-28T04:05:23;101349.97;;;8.74;100.00
61678;BME280;47575;52.054;4.334;2022-12-28T04:07:51;101348.16;;;8.77;100.00
61678;BME280;47575;52.054;4.334;2022-12-28T04:10:18;101342.03;;;8.81;100.00
61678;BME280;47575;52.054;4.334;2022-12-28T04:12:46;101349.81;;;8.83;100.00
61678;BME280;47575;52.054;4.334;2022-12-28T04:15:42;101354.22;;;8.81;100.00
61678;BME280;47575;52.054;4.334;2022-12-28T04:18:09;101350.72;;;8.82;100.00
61678;BME280;47575;52.054;4.334;2022-12-28T04:20:37;101354.97;;;8.87;100.00
61678;BME280;47575;52.054;4.334;2022-12-28T04:23:05;101344.53;;;8.86;100.00
61678;BME280;47575;52.054;4.334;2022-12-28T04:25:32;101353.22;;;8.88;100.00
61678;BME280;47575;52.054;4.334;2022-12-28T04:28:00;101358.38;;;8.91;100.00
61678;BME280;47575;52.054;4.334;2022-12-28T04:30:59;101339.22;;;8.92;100.00
61678;BME280;47575;52.054;4.334;2022-12-28T04:33:26;101334.81;;;8.96;100.00
61678;BME280;47575;52.054;4.334;2022-12-28T04:36:02;101341.78;;;8.95;100.00
61678;BME280;47575;52.054;4.334;2022-12-28T04:38:30;101341.66;;;9.01;100.00
61678;BME280;47575;52.054;4.334;2022-12-28T04:40:57;101350.38;;;9.02;100.00
61678;BME280;47575;52.054;4.334;2022-12-28T04:43:24;101343.41;;;9.01;100.00
61678;BME280;47575;52.054;4.334;2022-12-28T04:45:54;101347.66;;;9.06;100.00
61678;BME280;47575;52.054;4.334;2022-12-28T04:48:22;101347.66;;;9.06;100.00
61678;BME280;47575;52.054;4.334;2022-12-28T04:50:49;101342.41;;;9.08;100.00
61678;BME280;47575;52.054;4.334;2022-12-28T04:53:16;101339.78;;;9.08;100.00
61678;BME280;47575;52.054;4.334;2022-12-28T04:55:44;101346.78;;;9.09;100.00
61678;BME280;47575;52.054;4.334;2022-12-28T04:58:11;101345.88;;;9.08;100.00
61678;BME280;47575;52.054;4.334;2022-12-28T05:00:38;101338.91;;;9.10;100.00
61678;BME280;47575;52.054;4.334;2022-12-28T05:03:05;101342.34;;;9.12;100.00
61678;BME280;47575;52.054;4.334;2022-12-28T05:05:32;101354.47;;;9.17;100.00
61678;BME280;47575;52.054;4.334;2022-12-28T05:07:59;101342.41;;;9.09;100.00
61678;BME280;47575;52.054;4.334;2022-12-28T05:10:27;101334.50;;;9.12;100.00
61678;BME280;47575;52.054;4.334;2022-12-28T05:12:55;101332.72;;;9.14;100.00
61678;BME280;47575;52.054;4.334;2022-12-28T05:15:22;101314.47;;;9.13;100.00
61678;BME280;47575;52.054;4.334;2022-12-28T05:17:49;101317.81;;;9.21;100.00
61678;BME280;47575;52.054;4.334;2022-12-28T05:20:16;101327.34;;;9.24;100.00
61678;BME280;47575;52.054;4.334;2022-12-28T05:22:45;101314.25;;;9.25;100.00
61678;BME280;47575;52.054;4.334;2022-12-28T05:25:12;101322.06;;;9.27;100.00
61678;BME280;47575;52.054;4.334;2022-12-28T05:27:39;101322.91;;;9.27;100.00
61678;BME280;47575;52.054;4.334;2022-12-28T05:30:08;101332.38;;;9.33;100.00
61678;BME280;47575;52.054;4.334;2022-12-28T05:32:35;101330.59;;;9.35;100.00
61678;BME280;47575;52.054;4.334;2022-12-28T05:35:02;101342.72;;;9.37;100.00
61678;BME280;47575;52.054;4.334;2022-12-28T05:37:29;101328.81;;;9.37;100.00
61678;BME280;47575;52.054;4.334;2022-12-28T05:39:56;101338.28;;;9.42;100.00
61678;BME280;47575;52.054;4.334;2022-12-28T05:42:23;101330.38;;;9.46;100.00
61678;BME280;47575;52.054;4.334;2022-12-28T05:44:50;101333.00;;;9.47;100.00
61678;BME280;47575;52.054;4.334;2022-12-28T05:47:19;101338.22;;;9.46;100.00
61678;BME280;47575;52.054;4.334;2022-12-28T05:49:46;101349.63;;;9.41;100.00
61678;BME280;47575;52.054;4.334;2022-12-28T05:52:13;101329.63;;;9.40;100.00
61678;BME280;47575;52.054;4.334;2022-12-28T05:54:40;101311.38;;;9.37;100.00
61678;BME280;47575;52.054;4.334;2022-12-28T05:57:07;101328.78;;;9.40;100.00
61678;BME280;47575;52.054;4.334;2022-12-28T05:59:34;101331.34;;;9.41;100.00
61678;BME280;47575;52.054;4.334;2022-12-28T06:02:01;101327.91;;;9.39;100.00
61678;BME280;47575;52.054;4.334;2022-12-28T06:04:29;101316.56;;;9.40;100.00
61678;BME280;47575;52.054;4.334;2022-12-28T06:06:56;101322.66;;;9.41;100.00
61678;BME280;47575;52.054;4.334;2022-12-28T06:09:23;101314.78;;;9.42;100.00
61678;BME280;47575;52.054;4.334;2022-12-28T06:11:50;101316.44;;;9.47;100.00
61678;BME280;47575;52.054;4.334;2022-12-28T06:14:17;101319.13;;;9.42;100.00
61678;BME280;47575;52.054;4.334;2022-12-28T06:16:45;101299.09;;;9.42;100.00
61678;BME280;47575;52.054;4.334;2022-12-28T06:19:12;101303.53;;;9.37;100.00
61678;BME280;47575;52.054;4.334;2022-12-28T06:21:41;101312.19;;;9.41;100.00
61678;BME280;47575;52.054;4.334;2022-12-28T06:24:09;101296.44;;;9.44;100.00
61678;BME280;47575;52.054;4.334;2022-12-28T06:26:38;101295.63;;;9.42;100.00
61678;BME280;47575;52.054;4.334;2022-12-28T06:29:05;101302.53;;;9.44;100.00
61678;BME280;47575;52.054;4.334;2022-12-28T06:31:33;101297.31;;;9.46;100.00
61678;BME280;47575;52.054;4.334;2022-12-28T06:34:01;101302.53;;;9.44;100.00
61678;BME280;47575;52.054;4.334;2022-12-28T06:36:29;101312.97;;;9.44;100.00
61678;BME280;47575;52.054;4.334;2022-12-28T06:38:58;101313.06;;;9.41;100.00
61678;BME280;47575;52.054;4.334;2022-12-28T06:41:26;101300.03;;;9.38;100.00
61678;BME280;47575;52.054;4.334;2022-12-28T06:43:53;101299.16;;;9.39;100.00
61678;BME280;47575;52.054;4.334;2022-12-28T06:46:22;101292.19;;;9.38;100.00
61678;BME280;47575;52.054;4.334;2022-12-28T06:48:49;101297.41;;;9.40;100.00
61678;BME280;47575;52.054;4.334;2022-12-28T06:51:17;101292.19;;;9.40;100.00
61678;BME280;47575;52.054;4.334;2022-12-28T06:53:47;101297.31;;;9.44;100.00
61678;BME280;47575;52.054;4.334;2022-12-28T06:56:17;101289.47;;;9.44;100.00
61678;BME280;47575;52.054;4.334;2022-12-28T06:58:44;101302.53;;;9.46;100.00
61678;BME280;47575;52.054;4.334;2022-12-28T07:01:12;101294.72;;;9.43;100.00
61678;BME280;47575;52.054;4.334;2022-12-28T07:03:39;101302.53;;;9.44;100.00
61678;BME280;47575;52.054;4.334;2022-12-28T07:06:07;101301.59;;;9.49;100.00
61678;BME280;47575;52.054;4.334;2022-12-28T07:08:34;101300.78;;;9.47;100.00
61678;BME280;47575;52.054;4.334;2022-12-28T07:11:01;101292.81;;;9.51;100.00
61678;BME280;47575;52.054;4.334;2022-12-28T07:13:30;101287.56;;;9.53;100.00
61678;BME280;47575;52.054;4.334;2022-12-28T07:16:00;101291.09;;;9.50;100.00
61678;BME280;47575;52.054;4.334;2022-12-28T07:18:27;101297.09;;;9.55;100.00
61678;BME280;47575;52.054;4.334;2022-12-28T07:20:57;101301.53;;;9.52;100.00
61678;BME280;47575;52.054;4.334;2022-12-28T07:23:30;101306.69;;;9.55;100.00
61678;BME280;47575;52.054;4.334;2022-12-28T07:26:02;101298.78;;;9.58;100.00
61678;BME280;47575;52.054;4.334;2022-12-28T07:28:31;101279.56;;;9.62;100.00
61678;BME280;47575;52.054;4.334;2022-12-28T07:30:57;101281.19;;;9.66;100.00
61678;BME280;47575;52.054;4.334;2022-12-28T07:33:25;101291.59;;;9.67;100.00
61678;BME280;47575;52.054;4.334;2022-12-28T07:35:52;101300.28;;;9.69;100.00
61678;BME280;47575;52.054;4.334;2022-12-28T07:38:19;101295.81;;;9.75;100.00
61678;BME280;47575;52.054;4.334;2022-12-28T07:40:45;101311.44;;;9.78;100.00
61678;BME280;47575;52.054;4.334;2022-12-28T07:43:12;101293.16;;;9.78;100.00
61678;BME280;47575;52.054;4.334;2022-12-28T07:45:41;101292.22;;;9.80;100.00
61678;BME280;47575;52.054;4.334;2022-12-28T07:48:08;101297.47;;;9.79;100.00
61678;BME280;47575;52.054;4.334;2022-12-28T07:50:35;101298.25;;;9.82;100.00
61678;BME280;47575;52.054;4.334;2022-12-28T07:53:02;101301.72;;;9.83;100.00
61678;BME280;47575;52.054;4.334;2022-12-28T07:55:29;101299.97;;;9.85;100.00
61678;BME280;47575;52.054;4.334;2022-12-28T07:57:56;101304.28;;;9.86;100.00
61678;BME280;47575;52.054;4.334;2022-12-28T08:00:23;101303.31;;;9.90;100.00
61678;BME280;47575;52.054;4.334;2022-12-28T08:02:55;101303.41;;;9.87;100.00
61678;BME280;47575;52.054;4.334;2022-12-28T08:05:22;101305.03;;;9.92;100.00
61678;BME280;47575;52.054;4.334;2022-12-28T08:07:49;101292.00;;;9.91;100.00
61678;BME280;47575;52.054;4.334;2022-12-28T08:10:16;101297.22;;;9.91;100.00
61678;BME280;47575;52.054;4.334;2022-12-28T08:12:43;101298.00;;;9.94;100.00
61678;BME280;47575;52.054;4.334;2022-12-28T08:15:10;101298.00;;;9.94;100.00
61678;BME280;47575;52.054;4.334;2022-12-28T08:17:37;101288.47;;;9.92;100.00
61678;BME280;47575;52.054;4.334;2022-12-28T08:20:06;101304.91;;;9.97;100.00
61678;BME280;47575;52.054;4.334;2022-12-28T08:22:33;101305.72;;;10.01;100.00
61678;BME280;47575;52.054;4.334;2022-12-28T08:25:00;101304.84;;;10.00;100.00
61678;BME280;47575;52.054;4.334;2022-12-28T08:27:27;101295.31;;;9.97;100.00
61678;BME280;47575;52.054;4.334;2022-12-28T08:29:54;101290.97;;;9.96;100.00
61678;BME280;47575;52.054;4.334;2022-12-28T08:32:23;101292.59;;;10.02;100.00
61678;BME280;47575;52.054;4.334;2022-12-28T08:34:50;101289.22;;;9.97;100.00
61678;BME280;47575;52.054;4.334;2022-12-28T08:37:19;101290.91;;;9.99;100.00
61678;BME280;47575;52.054;4.334;2022-12-28T08:39:45;101283.84;;;10.03;100.00
61678;BME280;47575;52.054;4.334;2022-12-28T08:42:13;101271.75;;;9.99;100.00
61678;BME280;47575;52.054;4.334;2022-12-28T08:44:40;101270.91;;;9.98;100.00
61678;BME280;47575;52.054;4.334;2022-12-28T08:47:07;101278.69;;;10.00;100.00
61678;BME280;47575;52.054;4.334;2022-12-28T08:49:34;101269.91;;;10.03;100.00
61678;BME280;47575;52.054;4.334;2022-12-28T08:52:01;101268.16;;;10.03;100.00
61678;BME280;47575;52.054;4.334;2022-12-28T08:54:29;101263.84;;;10.02;100.00
61678;BME280;47575;52.054;4.334;2022-12-28T08:56:56;101267.34;;;10.01;100.00
61678;BME280;47575;52.054;4.334;2022-12-28T08:59:24;101260.44;;;9.98;100.00
61678;BME280;47575;52.054;4.334;2022-12-28T09:01:51;101256.16;;;9.94;100.00
61678;BME280;47575;52.054;4.334;2022-12-28T09:04:19;101240.56;;;9.91;100.00
61678;BME280;47575;52.054;4.334;2022-12-28T09:06:46;101250.06;;;9.94;100.00
61678;BME280;47575;52.054;4.334;2022-12-28T09:09:14;101252.69;;;9.94;100.00
61678;BME280;47575;52.054;4.334;2022-12-28T09:11:43;101283.22;;;9.93;100.00
61678;BME280;47575;52.054;4.334;2022-12-28T09:14:11;101254.34;;;9.96;100.00
61678;BME280;47575;52.054;4.334;2022-12-28T09:16:38;101253.38;;;10.02;100.00
61678;BME280;47575;52.054;4.334;2022-12-28T09:19:06;101252.47;;;10.03;100.00
61678;BME280;47575;52.054;4.334;2022-12-28T09:21:35;101251.56;;;10.06;100.00
61678;BME280;47575;52.054;4.334;2022-12-28T09:24:02;101246.31;;;10.06;100.00
61678;BME280;47575;52.054;4.334;2022-12-28T09:26:30;101259.19;;;10.15;100.00
61678;BME280;47575;52.054;4.334;2022-12-28T09:28:59;101260.94;;;10.13;100.00
61678;BME280;47575;52.054;4.334;2022-12-28T09:31:26;101254.00;;;10.13;100.00
61678;BME280;47575;52.054;4.334;2022-12-28T09:33:54;101255.75;;;10.11;100.00
61678;BME280;47575;52.054;4.334;2022-12-28T09:36:27;101252.31;;;10.09;100.00
61678;BME280;47575;52.054;4.334;2022-12-28T09:38:55;101256.63;;;10.12;100.00
61678;BME280;47575;52.054;4.334;2022-12-28T09:41:25;101243.53;;;10.13;100.00
61678;BME280;47575;52.054;4.334;2022-12-28T09:43:53;101239.16;;;10.14;100.00
61678;BME280;47575;52.054;4.334;2022-12-28T09:46:24;101237.31;;;10.17;100.00
61678;BME280;47575;52.054;4.334;2022-12-28T09:48:52;101241.63;;;10.18;100.00
61678;BME280;47575;52.054;4.334;2022-12-28T09:51:20;101238.97;;;10.23;100.00
61678;BME280;47575;52.054;4.334;2022-12-28T09:53:50;101226.75;;;10.20;100.00
61678;BME280;47575;52.054;4.334;2022-12-28T09:56:21;101228.50;;;10.20;100.00
61678;BME280;47575;52.054;4.334;2022-12-28T09:58:49;101228.44;;;10.24;100.00
61678;BME280;47575;52.054;4.334;2022-12-28T10:01:17;101231.03;;;10.26;100.00
61678;BME280;47575;52.054;4.334;2022-12-28T10:03:46;101235.34;;;10.27;100.00
61678;BME280;47575;52.054;4.334;2022-12-28T10:06:14;101233.72;;;10.23;100.00
61678;BME280;47575;52.054;4.334;2022-12-28T10:08:41;101218.22;;;10.14;100.00
61678;BME280;47575;52.054;4.334;2022-12-28T10:11:12;101219.09;;;10.14;100.00
61678;BME280;47575;52.054;4.334;2022-12-28T10:13:43;101220.00;;;10.13;100.00
61678;BME280;47575;52.054;4.334;2022-12-28T10:16:14;101232.16;;;10.14;100.00
61678;BME280;47575;52.054;4.334;2022-12-28T10:18:42;101210.63;;;10.03;100.00
61678;BME280;47575;52.054;4.334;2022-12-28T10:21:13;101215.72;;;10.09;100.00
61678;BME280;47575;52.054;4.334;2022-12-28T10:23:40;101210.56;;;10.06;100.00
61678;BME280;47575;52.054;4.334;2022-12-28T10:26:09;101211.63;;;9.99;100.00
61678;BME280;47575;52.054;4.334;2022-12-28T10:28:42;101213.56;;;9.91;100.00
61678;BME280;47575;52.054;4.334;2022-12-28T10:31:10;101211.84;;;9.88;100.00
61678;BME280;47575;52.054;4.334;2022-12-28T10:33:38;101215.41;;;9.86;100.00
61678;BME280;47575;52.054;4.334;2022-12-28T10:36:09;101195.25;;;9.91;100.00
61678;BME280;47575;52.054;4.334;2022-12-28T10:38:39;101204.91;;;9.87;100.00
61678;BME280;47575;52.054;4.334;2022-12-28T10:41:08;101213.72;;;9.83;100.00
61678;BME280;47575;52.054;4.334;2022-12-28T10:43:36;101205.97;;;9.79;100.00
61678;BME280;47575;52.054;4.334;2022-12-28T10:46:05;101192.81;;;9.82;100.00
61678;BME280;47575;52.054;4.334;2022-12-28T10:48:34;101192.06;;;9.78;100.00
61678;BME280;47575;52.054;4.334;2022-12-28T10:51:09;101191.28;;;9.73;100.00
61678;BME280;47575;52.054;4.334;2022-12-28T10:53:41;101191.41;;;9.68;100.00
61678;BME280;47575;52.054;4.334;2022-12-28T10:56:22;101190.59;;;9.65;100.00
61678;BME280;47575;52.054;4.334;2022-12-28T10:58:50;101191.47;;;9.65;100.00
61678;BME280;47575;52.054;4.334;2022-12-28T11:01:18;101187.13;;;9.64;100.00
61678;BME280;47575;52.054;4.334;2022-12-28T11:03:56;101193.31;;;9.60;100.00
61678;BME280;47575;52.054;4.334;2022-12-28T11:06:24;101182.00;;;9.60;100.00
61678;BME280;47575;52.054;4.334;2022-12-28T11:09:01;101176.00;;;9.56;100.00
61678;BME280;47575;52.054;4.334;2022-12-28T11:11:28;101177.78;;;9.54;100.00
61678;BME280;47575;52.054;4.334;2022-12-28T11:13:59;101171.00;;;9.47;100.00
61678;BME280;47575;52.054;4.334;2022-12-28T11:16:27;101185.81;;;9.45;100.00
61678;BME280;47575;52.054;4.334;2022-12-28T11:18:55;101175.31;;;9.48;100.00
61678;BME280;47575;52.054;4.334;2022-12-28T11:21:23;101167.59;;;9.42;100.00
61678;BME280;47575;52.054;4.334;2022-12-28T11:23:50;101171.06;;;9.42;100.00
61678;BME280;47575;52.054;4.334;2022-12-28T11:26:19;101176.31;;;9.42;100.00
61678;BME280;47575;52.054;4.334;2022-12-28T11:28:47;101166.75;;;9.41;100.00
61678;BME280;47575;52.054;4.334;2022-12-28T11:31:17;101176.34;;;9.41;100.00
61678;BME280;47575;52.054;4.334;2022-12-28T11:33:47;101164.13;;;9.41;100.00
61678;BME280;47575;52.054;4.334;2022-12-28T11:36:15;101171.97;;;9.41;100.00
61678;BME280;47575;52.054;4.334;2022-12-28T11:38:42;101185.06;;;9.40;100.00
61678;BME280;47575;52.054;4.334;2022-12-28T11:41:10;101168.53;;;9.39;100.00
61678;BME280;47575;52.054;4.334;2022-12-28T11:43:46;101189.44;;;9.38;100.00
61678;BME280;47575;52.054;4.334;2022-12-28T11:49:02;101172.06;;;9.37;100.00
61678;BME280;47575;52.054;4.334;2022-12-28T11:51:31;101154.63;;;9.39;100.00
61678;BME280;47575;52.054;4.334;2022-12-28T11:53:59;101156.38;;;9.37;100.00
61678;BME280;47575;52.054;4.334;2022-12-28T11:56:27;101156.47;;;9.34;100.00
61678;BME280;47575;52.054;4.334;2022-12-28T11:59:23;101149.41;;;9.37;100.00
61678;BME280;47575;52.054;4.334;2022-12-28T12:01:51;101141.59;;;9.36;100.00
61678;BME280;47575;52.054;4.334;2022-12-28T12:07:12;101136.34;;;9.37;100.00
61678;BME280;47575;52.054;4.334;2022-12-28T12:09:40;101133.56;;;9.45;100.00
61678;BME280;47575;52.054;4.334;2022-12-28T12:14:55;101123.16;;;9.43;100.00
61678;BME280;47575;52.054;4.334;2022-12-28T12:17:25;101120.41;;;9.50;100.00
61678;BME280;47575;52.054;4.334;2022-12-28T12:19:58;101124.81;;;9.48;100.00
61678;BME280;47575;52.054;4.334;2022-12-28T12:22:27;101124.78;;;9.49;100.00
61678;BME280;47575;52.054;4.334;2022-12-28T12:24:57;101116.78;;;9.55;100.00
61678;BME280;47575;52.054;4.334;2022-12-28T12:27:30;101118.50;;;9.56;100.00
61678;BME280;47575;52.054;4.334;2022-12-28T12:30:03;101107.19;;;9.56;100.00
61678;BME280;47575;52.054;4.334;2022-12-28T12:32:32;101088.75;;;9.62;100.00
61678;BME280;47575;52.054;4.334;2022-12-28T12:35:04;101083.53;;;9.60;100.00
61678;BME280;47575;52.054;4.334;2022-12-28T12:37:36;101080.91;;;9.62;100.00
61678;BME280;47575;52.054;4.334;2022-12-28T12:40:14;101077.31;;;9.66;100.00
61678;BME280;47575;52.054;4.334;2022-12-28T12:42:52;101067.63;;;9.71;100.00
61678;BME280;47575;52.054;4.334;2022-12-28T12:45:24;101050.19;;;9.71;100.00
61678;BME280;47575;52.054;4.334;2022-12-28T12:48:12;101051.94;;;9.71;100.00
61678;BME280;47575;52.054;4.334;2022-12-28T12:50:49;101055.97;;;9.83;100.00
61678;BME280;47575;52.054;4.334;2022-12-28T12:53:27;101047.38;;;9.79;100.00
61678;BME280;47575;52.054;4.334;2022-12-28T12:55:58;101051.66;;;9.82;100.00
61678;BME280;47575;52.054;4.334;2022-12-28T12:58:31;101037.63;;;9.86;100.00
61678;BME280;47575;52.054;4.334;2022-12-28T13:01:15;101023.75;;;9.82;100.00
61678;BME280;47575;52.054;4.334;2022-12-28T13:03:46;101002.84;;;9.82;100.00
61678;BME280;47575;52.054;4.334;2022-12-28T13:06:15;101004.59;;;9.82;100.00
61678;BME280;47575;52.054;4.334;2022-12-28T13:08:44;100997.44;;;9.88;100.00
61678;BME280;47575;52.054;4.334;2022-12-28T13:11:12;100998.34;;;9.87;100.00
61678;BME280;47575;52.054;4.334;2022-12-28T13:13:42;100991.31;;;9.89;100.00